Time;durP1;ratioP1;P1;durP2;ratioP2;P2;SDS_P1;SDS_P2;PMS_P1;PMS_P2;Temp;Humidity;BMP_temperature;BMP_pressure;BME280_temperature;BME280_humidity;BME280_pressure;Samples;Min_cycle;Max_cycle;Signal;HPM_P1;HPM_P2
2021/09/06 00:01:35;;;;;;;16.17;10.30;;;19.10;99.90;;;;;;4125466;28;20347;-70
2021/09/06 00:03:35;;;;;;;15.20;10.68;;;19.10;99.90;;;;;;4098450;28;20126;-70
2021/09/06 00:05:36;;;;;;;17.10;12.25;;;19.00;99.90;;;;;;4124865;28;20027;-70
2021/09/06 00:07:38;;;;;;;17.23;11.50;;;19.00;99.90;;;;;;4125834;28;20414;-70
2021/09/06 00:09:40;;;;;;;13.43;10.10;;;19.00;99.90;;;;;;4123564;28;20046;-70
2021/09/06 00:11:40;;;;;;;14.87;10.47;;;19.00;99.90;;;;;;4124545;28;20274;-70
2021/09/06 00:13:42;;;;;;;18.02;12.02;;;18.90;99.90;;;;;;4124570;28;20269;-70
2021/09/06 00:15:42;;;;;;;18.58;11.55;;;18.90;99.90;;;;;;4110984;28;20034;-70
2021/09/06 00:17:43;;;;;;;16.20;11.00;;;18.90;99.90;;;;;;4125555;28;20437;-70
2021/09/06 00:19:44;;;;;;;17.15;11.60;;;18.90;99.90;;;;;;4126405;28;20041;-70
2021/09/06 00:21:44;;;;;;;15.38;10.43;;;18.80;99.90;;;;;;4125451;28;20033;-70
2021/09/06 00:23:45;;;;;;;16.25;10.85;;;18.80;99.90;;;;;;4108370;28;20031;-70
2021/09/06 00:25:45;;;;;;;14.52;9.57;;;18.80;99.90;;;;;;4125275;28;20069;-70
2021/09/06 00:27:46;;;;;;;16.33;10.45;;;18.80;99.90;;;;;;4124963;28;20031;-70
2021/09/06 00:29:47;;;;;;;15.77;10.88;;;18.80;99.90;;;;;;4125085;28;20045;-70
2021/09/06 00:31:47;;;;;;;16.67;11.13;;;18.80;99.90;;;;;;4125154;28;20033;-70
2021/09/06 00:33:48;;;;;;;16.50;10.95;;;18.70;99.90;;;;;;4123878;28;20030;-70
2021/09/06 00:35:49;;;;;;;16.95;11.60;;;18.70;99.90;;;;;;4108771;28;20078;-70
2021/09/06 00:37:49;;;;;;;17.38;10.88;;;18.70;99.90;;;;;;4120629;28;20066;-70
2021/09/06 00:39:50;;;;;;;17.95;10.90;;;18.70;99.90;;;;;;4105157;28;20043;-70
2021/09/06 00:41:50;;;;;;;18.73;11.00;;;18.70;99.90;;;;;;4121124;28;20182;-70
2021/09/06 00:43:52;;;;;;;15.32;10.27;;;18.60;99.90;;;;;;4107431;28;20038;-70
2021/09/06 00:45:53;;;;;;;17.70;11.53;;;18.60;99.90;;;;;;4124542;28;20030;-70
2021/09/06 00:47:53;;;;;;;16.42;10.98;;;18.60;99.90;;;;;;4126096;28;20474;-70
2021/09/06 00:49:54;;;;;;;18.00;11.05;;;18.60;99.90;;;;;;4125110;28;20035;-70
2021/09/06 00:51:55;;;;;;;16.80;11.40;;;18.50;99.90;;;;;;4122404;28;20030;-70
2021/09/06 00:53:56;;;;;;;19.02;11.98;;;18.60;99.90;;;;;;4123984;28;20039;-70
2021/09/06 00:55:56;;;;;;;18.50;11.35;;;18.50;99.90;;;;;;4124878;28;20037;-69
2021/09/06 00:57:57;;;;;;;17.80;11.55;;;18.50;99.90;;;;;;4109718;28;20035;-70
2021/09/06 00:59:58;;;;;;;15.10;10.77;;;18.50;99.90;;;;;;4124442;28;21153;-70
2021/09/06 01:01:59;;;;;;;15.85;10.98;;;18.50;99.90;;;;;;4125256;28;20517;-70
2021/09/06 01:04:00;;;;;;;17.88;11.63;;;18.50;99.90;;;;;;4125003;28;20027;-70
2021/09/06 01:06:00;;;;;;;16.30;11.07;;;18.50;99.90;;;;;;4124559;28;21425;-70
2021/09/06 01:08:01;;;;;;;18.85;11.40;;;18.40;99.90;;;;;;4123907;28;20122;-70
2021/09/06 01:10:09;;;;;;;17.48;11.57;;;18.40;99.90;;;;;;4124880;28;20035;-70
2021/09/06 01:12:09;;;;;;;17.13;11.23;;;18.40;99.90;;;;;;4123496;28;20093;-70
2021/09/06 01:14:10;;;;;;;14.20;10.02;;;18.40;99.90;;;;;;4107693;28;20031;-70
2021/09/06 01:16:11;;;;;;;15.32;10.77;;;18.30;99.90;;;;;;4106784;28;20443;-70
2021/09/06 01:18:11;;;;;;;21.00;11.05;;;18.30;99.90;;;;;;4121450;28;20045;-70
2021/09/06 01:20:12;;;;;;;16.60;10.70;;;18.30;99.90;;;;;;4125008;28;20038;-70
2021/09/06 01:22:13;;;;;;;16.40;11.02;;;18.30;99.90;;;;;;4124349;28;20113;-70
2021/09/06 01:24:17;;;;;;;19.80;12.05;;;18.20;99.90;;;;;;4119277;28;20030;-70
2021/09/06 01:26:18;;;;;;;19.13;11.43;;;18.20;99.90;;;;;;4107126;28;20786;-70
2021/09/06 01:28:19;;;;;;;18.42;12.00;;;18.20;99.90;;;;;;4132704;28;20073;-70
2021/09/06 01:30:20;;;;;;;19.45;11.82;;;18.20;99.90;;;;;;4121713;28;20027;-70
2021/09/06 01:32:21;;;;;;;17.40;11.98;;;18.20;99.90;;;;;;4105440;28;20126;-70
2021/09/06 01:34:21;;;;;;;16.00;11.30;;;18.10;99.90;;;;;;4123226;28;20058;-70
2021/09/06 01:36:22;;;;;;;16.08;11.05;;;18.10;99.90;;;;;;4124292;28;20050;-70
2021/09/06 01:38:22;;;;;;;15.30;10.75;;;18.10;99.90;;;;;;4123824;28;20135;-70
2021/09/06 01:40:25;;;;;;;15.38;10.45;;;18.10;99.90;;;;;;4124885;28;20030;-70
2021/09/06 01:42:26;;;;;;;17.83;11.30;;;18.10;99.90;;;;;;4123706;28;20042;-70
2021/09/06 01:44:27;;;;;;;17.02;11.65;;;18.00;99.90;;;;;;4124085;28;20113;-70
2021/09/06 01:46:32;;;;;;;17.17;11.20;;;18.00;99.90;;;;;;4124591;28;20046;-70
2021/09/06 01:48:32;;;;;;;16.40;10.95;;;18.00;99.90;;;;;;4125168;28;20050;-70
2021/09/06 01:50:33;;;;;;;16.88;10.73;;;18.00;99.90;;;;;;4123332;28;20026;-70
2021/09/06 01:52:34;;;;;;;18.58;11.20;;;18.00;99.90;;;;;;4123124;28;20037;-70
2021/09/06 01:54:34;;;;;;;15.20;10.90;;;17.90;99.90;;;;;;4122862;28;20744;-70
2021/09/06 01:56:36;;;;;;;17.38;11.10;;;18.00;99.90;;;;;;4125012;28;20089;-70
2021/09/06 01:58:38;;;;;;;16.65;10.98;;;17.90;99.90;;;;;;4120426;28;20089;-70
2021/09/06 02:00:38;;;;;;;16.97;11.20;;;17.90;99.90;;;;;;4116619;28;20047;-71
2021/09/06 02:02:39;;;;;;;19.25;10.90;;;17.90;99.90;;;;;;4106965;28;20179;-70
2021/09/06 02:04:39;;;;;;;19.50;11.93;;;17.90;99.90;;;;;;4122822;28;20038;-70
2021/09/06 02:06:40;;;;;;;19.60;11.25;;;17.90;99.90;;;;;;4124512;28;20034;-70
2021/09/06 02:08:41;;;;;;;15.40;10.73;;;17.80;99.90;;;;;;4122376;28;20453;-70
2021/09/06 02:10:41;;;;;;;17.20;11.70;;;17.80;99.90;;;;;;4106838;28;20035;-70
2021/09/06 02:12:42;;;;;;;16.17;11.13;;;17.80;99.90;;;;;;4121072;28;20046;-70
2021/09/06 02:14:42;;;;;;;18.20;11.98;;;17.80;99.90;;;;;;4123732;28;20162;-70
2021/09/06 02:16:43;;;;;;;17.92;11.55;;;17.70;99.90;;;;;;4123705;28;20041;-70
2021/09/06 02:18:43;;;;;;;16.23;11.25;;;17.70;99.90;;;;;;4122655;28;20085;-70
2021/09/06 02:20:44;;;;;;;16.92;11.63;;;17.70;99.90;;;;;;4124374;28;20417;-70
2021/09/06 02:22:45;;;;;;;18.80;12.55;;;17.70;99.90;;;;;;4123158;28;20129;-70
2021/09/06 02:24:45;;;;;;;17.52;11.13;;;17.70;99.90;;;;;;4123990;28;20613;-70
2021/09/06 02:26:46;;;;;;;16.77;11.43;;;17.70;99.90;;;;;;4107033;28;20502;-70
2021/09/06 02:28:48;;;;;;;19.50;12.55;;;17.60;99.90;;;;;;4123590;28;20598;-70
2021/09/06 02:30:49;;;;;;;17.10;11.98;;;17.60;99.90;;;;;;4124087;28;20091;-70
2021/09/06 02:32:49;;;;;;;16.75;10.88;;;17.60;99.90;;;;;;4109916;28;20042;-70
2021/09/06 02:34:50;;;;;;;17.63;11.45;;;17.60;99.90;;;;;;4123399;28;20038;-70
2021/09/06 02:36:51;;;;;;;15.50;10.77;;;17.60;99.90;;;;;;4106879;28;20035;-70
2021/09/06 02:38:53;;;;;;;19.48;10.60;;;17.60;99.90;;;;;;4122796;28;20030;-70
2021/09/06 02:40:53;;;;;;;17.67;11.50;;;17.60;99.90;;;;;;4122955;28;20046;-70
2021/09/06 02:42:54;;;;;;;17.45;11.50;;;17.60;99.90;;;;;;4110643;28;20057;-70
2021/09/06 02:44:54;;;;;;;17.40;11.93;;;17.50;99.90;;;;;;4120841;28;20136;-70
2021/09/06 02:46:55;;;;;;;17.98;11.40;;;17.50;99.90;;;;;;4105926;28;20400;-70
2021/09/06 02:48:56;;;;;;;18.25;11.88;;;17.50;99.90;;;;;;4119346;28;20038;-70
2021/09/06 02:50:56;;;;;;;16.33;11.45;;;17.50;99.90;;;;;;4110478;28;20038;-70
2021/09/06 02:52:57;;;;;;;17.45;11.35;;;17.50;99.90;;;;;;4123714;28;20026;-70
2021/09/06 02:54:57;;;;;;;19.00;12.30;;;17.50;99.90;;;;;;4121667;28;20038;-70
2021/09/06 02:56:58;;;;;;;17.80;11.68;;;17.50;99.90;;;;;;4121728;28;20038;-70
2021/09/06 02:58:58;;;;;;;20.02;12.45;;;17.50;99.90;;;;;;4122826;28;20071;-70
2021/09/06 03:00:59;;;;;;;19.60;12.32;;;17.40;99.90;;;;;;4122900;28;20057;-70
2021/09/06 03:02:59;;;;;;;17.40;11.90;;;17.50;99.90;;;;;;4123136;28;20631;-70
2021/09/06 03:05:00;;;;;;;17.30;11.25;;;17.40;99.90;;;;;;4123736;28;20042;-70
2021/09/06 03:07:01;;;;;;;17.48;12.35;;;17.40;99.90;;;;;;4122650;28;20625;-70
2021/09/06 03:09:01;;;;;;;15.50;11.63;;;17.40;99.90;;;;;;4122386;28;20033;-70
2021/09/06 03:11:02;;;;;;;16.13;10.98;;;17.40;99.90;;;;;;4122294;28;20122;-70
2021/09/06 03:13:03;;;;;;;17.65;11.23;;;17.40;99.90;;;;;;4120541;28;20058;-70
2021/09/06 03:15:04;;;;;;;18.63;12.15;;;17.40;99.90;;;;;;4122909;28;20061;-70
2021/09/06 03:17:04;;;;;;;17.80;11.82;;;17.40;99.90;;;;;;4123271;28;20481;-70
2021/09/06 03:19:05;;;;;;;17.20;11.75;;;17.40;99.90;;;;;;4123112;28;20026;-70
2021/09/06 03:21:06;;;;;;;18.05;12.18;;;17.30;99.90;;;;;;4122815;28;20042;-70
2021/09/06 03:23:06;;;;;;;19.73;11.70;;;17.30;99.90;;;;;;4106298;28;20039;-70
2021/09/06 03:25:07;;;;;;;15.63;10.95;;;17.30;99.90;;;;;;4120068;28;20043;-70
2021/09/06 03:27:08;;;;;;;16.30;11.45;;;17.30;99.90;;;;;;4122429;28;20034;-70
2021/09/06 03:29:09;;;;;;;17.75;12.20;;;17.30;99.90;;;;;;4123637;28;20096;-70
2021/09/06 03:31:09;;;;;;;19.10;11.98;;;17.30;99.90;;;;;;4124750;28;20038;-70
2021/09/06 03:33:13;;;;;;;18.23;11.20;;;17.30;99.90;;;;;;4126993;28;20529;-70
2021/09/06 03:35:14;;;;;;;16.08;11.25;;;17.30;99.90;;;;;;4125287;28;20583;-70
2021/09/06 03:37:15;;;;;;;17.95;11.23;;;17.30;99.90;;;;;;4127057;28;20035;-70
2021/09/06 03:39:16;;;;;;;18.98;12.43;;;17.30;99.90;;;;;;4126196;28;20547;-70
2021/09/06 03:41:17;;;;;;;15.57;10.77;;;17.30;99.90;;;;;;4108409;28;20035;-70
2021/09/06 03:43:18;;;;;;;17.92;12.18;;;17.20;99.90;;;;;;4104158;28;20043;-70
2021/09/06 03:45:19;;;;;;;18.15;11.90;;;17.20;99.90;;;;;;4126384;28;20533;-70
2021/09/06 03:47:19;;;;;;;17.08;11.90;;;17.20;99.90;;;;;;4109684;28;20057;-70
2021/09/06 03:49:20;;;;;;;17.73;11.38;;;17.10;99.90;;;;;;4125418;28;20026;-70
2021/09/06 03:51:23;;;;;;;21.73;13.05;;;17.20;99.90;;;;;;4110243;28;20709;-70
2021/09/06 03:53:23;;;;;;;17.92;12.38;;;17.10;99.90;;;;;;4123353;28;20038;-70
2021/09/06 03:55:24;;;;;;;17.55;11.60;;;17.10;99.90;;;;;;4125945;28;20034;-70
2021/09/06 03:57:24;;;;;;;16.88;10.90;;;17.10;99.90;;;;;;4110108;28;20043;-70
2021/09/06 03:59:25;;;;;;;19.83;12.00;;;17.00;99.90;;;;;;4112112;28;20052;-70
2021/09/06 04:01:25;;;;;;;17.98;11.48;;;17.00;99.90;;;;;;4124945;28;20038;-70
2021/09/06 04:03:26;;;;;;;16.40;11.25;;;17.00;99.90;;;;;;4111257;28;20042;-70
2021/09/06 04:05:27;;;;;;;19.80;12.38;;;17.00;99.90;;;;;;4126150;28;20161;-70
2021/09/06 04:07:27;;;;;;;19.17;12.73;;;17.00;99.90;;;;;;4126066;28;20034;-70
2021/09/06 04:09:29;;;;;;;21.77;13.02;;;16.90;99.90;;;;;;4107278;28;20090;-70
2021/09/06 04:11:30;;;;;;;17.50;11.90;;;16.90;99.90;;;;;;4129177;28;20034;-70
2021/09/06 04:13:31;;;;;;;17.80;12.15;;;16.90;99.90;;;;;;4108603;28;20273;-70
2021/09/06 04:15:32;;;;;;;18.13;11.23;;;16.90;99.90;;;;;;4123891;28;20045;-70
2021/09/06 04:17:32;;;;;;;21.45;12.60;;;16.90;99.90;;;;;;4107367;28;20882;-70
2021/09/06 04:19:33;;;;;;;17.20;11.57;;;16.90;99.90;;;;;;4121928;28;20695;-70
2021/09/06 04:21:34;;;;;;;19.55;12.55;;;16.90;99.90;;;;;;4123720;28;20113;-70
2021/09/06 04:23:35;;;;;;;19.05;12.98;;;16.90;99.90;;;;;;4106617;28;20132;-70
2021/09/06 04:25:35;;;;;;;21.20;13.43;;;16.90;99.90;;;;;;4123186;28;22145;-70
2021/09/06 04:27:36;;;;;;;20.25;13.02;;;16.80;99.90;;;;;;4112982;28;20043;-70
2021/09/06 04:29:37;;;;;;;19.67;13.13;;;16.80;99.90;;;;;;4123311;28;20046;-70
2021/09/06 04:31:37;;;;;;;21.48;13.63;;;16.80;99.90;;;;;;4125075;28;20034;-70
2021/09/06 04:33:38;;;;;;;19.27;12.77;;;16.80;99.90;;;;;;4125600;28;20042;-70
2021/09/06 04:35:38;;;;;;;16.60;11.45;;;16.80;99.90;;;;;;4110359;28;20500;-70
2021/09/06 04:37:39;;;;;;;19.05;12.05;;;16.80;99.90;;;;;;4124702;28;20065;-70
2021/09/06 04:39:40;;;;;;;17.80;11.75;;;16.80;99.90;;;;;;4123780;28;20099;-70
2021/09/06 04:41:40;;;;;;;19.73;12.73;;;16.80;99.90;;;;;;4107754;28;20058;-70
2021/09/06 04:43:41;;;;;;;16.35;11.55;;;16.80;99.90;;;;;;4116306;28;20042;-70
2021/09/06 04:45:41;;;;;;;20.65;12.27;;;16.70;99.90;;;;;;4129559;28;20458;-70
2021/09/06 04:47:42;;;;;;;15.35;10.63;;;16.70;99.90;;;;;;4125546;28;20386;-70
2021/09/06 04:49:43;;;;;;;16.08;11.20;;;16.80;99.90;;;;;;4127815;28;20065;-70
2021/09/06 04:51:43;;;;;;;15.70;10.63;;;16.70;99.90;;;;;;4134156;28;20165;-70
2021/09/06 04:53:47;;;;;;;21.25;12.52;;;16.70;99.90;;;;;;4127290;28;20042;-70
2021/09/06 04:55:47;;;;;;;17.63;11.32;;;16.70;99.90;;;;;;4124003;28;20038;-70
2021/09/06 04:57:48;;;;;;;19.10;11.05;;;16.70;99.90;;;;;;4119864;28;20181;-70
2021/09/06 04:59:49;;;;;;;20.10;12.02;;;16.70;99.90;;;;;;4122620;28;20030;-70
2021/09/06 05:01:49;;;;;;;20.40;12.50;;;16.70;99.90;;;;;;4124533;28;20096;-70
2021/09/06 05:03:50;;;;;;;21.05;13.48;;;16.70;99.90;;;;;;4123956;28;20389;-70
2021/09/06 05:05:50;;;;;;;17.20;11.80;;;16.70;99.90;;;;;;4125331;28;20052;-70
2021/09/06 05:07:51;;;;;;;19.38;12.70;;;16.60;99.90;;;;;;4121996;28;20118;-70
2021/09/06 05:09:52;;;;;;;17.50;11.95;;;16.60;99.90;;;;;;4125314;28;20117;-70
2021/09/06 05:11:52;;;;;;;17.88;10.93;;;16.60;99.90;;;;;;4124226;28;20042;-70
2021/09/06 05:13:53;;;;;;;18.60;12.75;;;16.60;99.90;;;;;;4120991;28;20046;-70
2021/09/06 05:15:53;;;;;;;17.65;11.52;;;16.50;99.90;;;;;;4122536;28;20037;-70
2021/09/06 05:17:55;;;;;;;18.70;12.25;;;16.50;99.90;;;;;;4120757;28;20104;-70
2021/09/06 05:19:56;;;;;;;17.47;12.00;;;16.50;99.90;;;;;;4124050;28;20034;-70
2021/09/06 05:21:56;;;;;;;16.70;10.85;;;16.50;99.90;;;;;;4123797;28;20585;-70
2021/09/06 05:23:58;;;;;;;18.58;11.75;;;16.50;99.90;;;;;;4113269;28;20108;-71
2021/09/06 05:25:59;;;;;;;17.20;11.15;;;16.50;99.90;;;;;;4125350;28;20039;-70
2021/09/06 05:27:59;;;;;;;19.40;11.93;;;16.50;99.90;;;;;;4122842;28;20040;-70
2021/09/06 05:30:00;;;;;;;19.60;12.07;;;16.40;99.90;;;;;;4123976;28;20116;-70
2021/09/06 05:32:01;;;;;;;18.40;11.95;;;16.40;99.90;;;;;;4123690;28;20061;-70
2021/09/06 05:34:01;;;;;;;16.05;11.45;;;16.40;99.90;;;;;;4123900;28;20058;-70
2021/09/06 05:36:03;;;;;;;19.40;12.90;;;16.40;99.90;;;;;;4126612;28;20041;-70
2021/09/06 05:38:04;;;;;;;19.58;11.82;;;16.40;99.90;;;;;;4122803;28;20034;-70
2021/09/06 05:40:05;;;;;;;19.98;11.75;;;16.40;99.90;;;;;;4122398;28;20064;-70
2021/09/06 05:42:05;;;;;;;19.23;12.73;;;16.40;99.90;;;;;;4120595;28;20050;-70
2021/09/06 05:44:08;;;;;;;17.15;11.57;;;16.40;99.90;;;;;;4121688;28;20180;-70
2021/09/06 05:46:09;;;;;;;17.33;11.43;;;16.40;99.90;;;;;;4122935;28;20533;-70
2021/09/06 05:48:10;;;;;;;19.27;12.10;;;16.40;99.90;;;;;;4119549;28;20034;-70
2021/09/06 05:50:16;;;;;;;17.05;11.80;;;16.40;99.90;;;;;;4122139;28;20069;-70
2021/09/06 05:52:17;;;;;;;15.90;10.55;;;16.40;99.90;;;;;;4119734;28;20039;-70
2021/09/06 05:54:18;;;;;;;21.30;11.00;;;16.40;99.90;;;;;;4124340;28;20037;-70
2021/09/06 05:56:20;;;;;;;18.25;11.73;;;16.40;99.90;;;;;;4123400;28;20097;-70
2021/09/06 05:58:21;;;;;;;18.75;12.20;;;16.40;99.90;;;;;;4120899;28;20044;-70
2021/09/06 06:00:21;;;;;;;17.58;11.45;;;16.40;99.90;;;;;;4120656;28;20046;-70
2021/09/06 06:02:22;;;;;;;17.27;11.88;;;16.40;99.90;;;;;;4127835;28;20038;-70
2021/09/06 06:04:22;;;;;;;16.00;11.30;;;16.40;99.90;;;;;;4123419;28;20117;-70
2021/09/06 06:06:23;;;;;;;17.42;11.50;;;16.40;99.90;;;;;;4118555;28;20038;-70
2021/09/06 06:08:23;;;;;;;20.33;12.57;;;16.40;99.90;;;;;;4121544;28;21318;-70
2021/09/06 06:10:24;;;;;;;20.95;12.93;;;16.50;99.90;;;;;;4122301;28;20046;-70
2021/09/06 06:12:28;;;;;;;22.38;14.25;;;16.40;99.90;;;;;;4122165;28;20034;-70
2021/09/06 06:14:28;;;;;;;20.67;13.20;;;16.40;99.90;;;;;;4120668;28;20927;-68
2021/09/06 06:16:30;;;;;;;21.75;13.90;;;16.40;99.90;;;;;;4122074;28;20124;-68
2021/09/06 06:18:31;;;;;;;19.37;12.60;;;16.40;99.90;;;;;;4119178;28;20141;-69
2021/09/06 06:20:32;;;;;;;20.45;12.73;;;16.50;99.90;;;;;;4102528;28;20510;-68
2021/09/06 06:22:32;;;;;;;20.88;12.93;;;16.50;99.90;;;;;;4121183;28;20131;-68
2021/09/06 06:24:33;;;;;;;19.33;13.18;;;16.50;99.90;;;;;;4118132;28;20545;-68
2021/09/06 06:26:33;;;;;;;20.13;13.90;;;16.50;99.90;;;;;;4102413;28;20043;-69
2021/09/06 06:28:34;;;;;;;20.92;13.32;;;16.50;99.90;;;;;;4103523;28;20043;-68
2021/09/06 06:30:35;;;;;;;18.17;13.10;;;16.60;99.90;;;;;;4119258;28;20458;-68
2021/09/06 06:32:35;;;;;;;22.42;14.23;;;16.60;99.90;;;;;;4119694;28;20064;-69
2021/09/06 06:34:37;;;;;;;24.52;15.07;;;16.60;99.90;;;;;;4119561;28;20039;-69
2021/09/06 06:36:37;;;;;;;23.23;14.55;;;16.60;99.90;;;;;;4119263;28;20034;-69
2021/09/06 06:38:38;;;;;;;26.98;15.23;;;16.60;99.90;;;;;;4120470;28;20057;-68
2021/09/06 06:40:39;;;;;;;20.58;14.55;;;16.60;99.90;;;;;;4119964;28;20041;-69
2021/09/06 06:42:40;;;;;;;23.65;15.55;;;16.60;99.90;;;;;;4104332;28;20463;-68
2021/09/06 06:44:40;;;;;;;27.05;15.90;;;16.60;99.90;;;;;;4119342;28;20030;-68
2021/09/06 06:46:41;;;;;;;20.25;13.82;;;16.70;99.90;;;;;;4118581;28;20041;-68
2021/09/06 06:48:41;;;;;;;20.35;14.13;;;16.70;99.90;;;;;;4102735;28;20038;-69
2021/09/06 06:50:42;;;;;;;21.85;14.68;;;16.70;99.90;;;;;;4097602;28;20081;-68
2021/09/06 06:52:43;;;;;;;24.92;15.45;;;16.70;99.90;;;;;;4120240;28;20042;-69
2021/09/06 06:54:45;;;;;;;28.23;15.68;;;16.80;99.90;;;;;;4120057;28;20058;-69
2021/09/06 06:56:46;;;;;;;23.67;16.10;;;16.80;99.90;;;;;;4120252;28;20034;-69
2021/09/06 06:58:46;;;;;;;25.70;15.57;;;16.80;99.90;;;;;;4102354;28;20045;-69
2021/09/06 07:00:47;;;;;;;29.77;16.77;;;16.80;99.90;;;;;;4118854;28;20425;-68
2021/09/06 07:02:47;;;;;;;26.58;17.70;;;16.80;99.90;;;;;;4119962;28;20046;-68
2021/09/06 07:04:48;;;;;;;27.00;16.77;;;16.90;99.90;;;;;;4115642;28;20030;-68
2021/09/06 07:06:49;;;;;;;26.67;16.63;;;16.90;99.90;;;;;;4118541;28;20411;-68
2021/09/06 07:08:49;;;;;;;24.20;16.13;;;16.90;99.90;;;;;;4117890;28;20030;-68
2021/09/06 07:10:50;;;;;;;29.67;17.38;;;17.00;99.90;;;;;;4118929;28;20379;-69
2021/09/06 07:12:51;;;;;;;26.40;17.52;;;17.00;99.90;;;;;;4120457;28;20057;-69
2021/09/06 07:14:51;;;;;;;26.60;17.38;;;17.00;99.90;;;;;;4102673;28;20039;-69
2021/09/06 07:16:52;;;;;;;26.60;17.05;;;17.10;99.90;;;;;;4117434;28;20039;-69
2021/09/06 07:18:52;;;;;;;26.45;17.45;;;17.10;99.90;;;;;;4119078;28;20039;-69
2021/09/06 07:20:53;;;;;;;24.65;16.02;;;17.20;99.90;;;;;;4094749;28;20039;-69
2021/09/06 07:22:54;;;;;;;29.70;16.08;;;17.20;99.90;;;;;;4114863;28;20034;-69
2021/09/06 07:24:54;;;;;;;26.83;17.63;;;17.20;99.90;;;;;;4119134;28;20153;-69
2021/09/06 07:26:55;;;;;;;28.02;17.55;;;17.30;99.90;;;;;;4120223;28;20539;-69
2021/09/06 07:28:58;;;;;;;30.35;18.42;;;17.30;99.90;;;;;;4119927;28;20559;-68
2021/09/06 07:30:59;;;;;;;28.20;18.20;;;17.40;99.90;;;;;;4117630;28;21346;-69
2021/09/06 07:33:02;;;;;;;28.23;18.55;;;17.40;99.90;;;;;;4119623;28;20112;-69
2021/09/06 07:35:03;;;;;;;25.52;17.60;;;17.50;99.90;;;;;;4101542;28;20031;-69
2021/09/06 07:37:08;;;;;;;25.98;16.83;;;17.50;99.90;;;;;;4118761;28;20150;-68
2021/09/06 07:39:10;;;;;;;27.73;17.63;;;17.60;99.90;;;;;;4089330;28;20028;-69
2021/09/06 07:41:11;;;;;;;;;;;17.70;99.90;;;;;;4102049;28;20088;-69
2021/09/06 07:43:11;;;;;;;24.15;15.80;;;17.80;99.90;;;;;;4102963;28;20368;-69
2021/09/06 07:45:12;;;;;;;25.95;17.42;;;17.80;99.90;;;;;;4102231;28;20141;-69
2021/09/06 07:47:14;;;;;;;30.65;18.45;;;17.90;99.90;;;;;;4119331;28;20038;-69
2021/09/06 07:49:15;;;;;;;27.85;17.38;;;18.00;99.90;;;;;;4118335;28;20077;-69
2021/09/06 07:51:15;;;;;;;25.42;15.77;;;18.10;99.90;;;;;;4119885;28;20031;-68
2021/09/06 07:53:16;;;;;;;26.85;17.60;;;18.10;99.90;;;;;;4120301;28;20042;-69
2021/09/06 07:55:17;;;;;;;28.17;18.40;;;18.30;99.90;;;;;;4117167;28;20046;-69
2021/09/06 07:57:17;;;;;;;29.40;18.42;;;18.40;99.90;;;;;;4119817;28;20522;-69
2021/09/06 07:59:20;;;;;;;30.58;18.17;;;18.40;99.90;;;;;;4117355;28;20030;-68
2021/09/06 08:01:21;;;;;;;25.40;17.05;;;18.50;99.90;;;;;;4119058;28;20046;-69
2021/09/06 08:03:21;;;;;;;29.98;18.15;;;18.60;99.90;;;;;;4118029;28;20027;-68
2021/09/06 08:05:24;;;;;;;29.25;18.00;;;18.60;99.90;;;;;;4119861;28;20053;-69
2021/09/06 08:07:26;;;;;;;26.83;17.15;;;18.70;99.90;;;;;;4119527;28;20035;-69
2021/09/06 08:09:27;;;;;;;31.30;18.20;;;18.80;99.90;;;;;;4120040;28;20771;-69
2021/09/06 08:11:28;;;;;;;23.45;16.02;;;18.80;99.90;;;;;;4119957;28;20092;-69
2021/09/06 08:13:28;;;;;;;28.23;17.85;;;18.90;99.90;;;;;;4118499;28;20793;-69
2021/09/06 08:15:29;;;;;;;23.20;16.05;;;19.00;99.90;;;;;;4122467;28;20053;-69
2021/09/06 08:17:30;;;;;;;24.70;15.38;;;19.10;99.90;;;;;;4120414;28;20034;-69
2021/09/06 08:19:30;;;;;;;25.45;16.75;;;19.20;99.90;;;;;;4121950;28;20097;-69
2021/09/06 08:21:31;;;;;;;21.17;14.50;;;19.30;99.90;;;;;;4122042;28;20031;-69
2021/09/06 08:23:32;;;;;;;21.42;14.25;;;19.40;99.90;;;;;;4122641;28;20034;-69
2021/09/06 08:25:33;;;;;;;23.45;15.50;;;19.50;99.90;;;;;;4121851;28;20498;-69
2021/09/06 08:27:34;;;;;;;25.67;16.13;;;19.60;99.90;;;;;;4120941;28;20084;-69
2021/09/06 08:29:34;;;;;;;25.17;16.17;;;19.70;99.90;;;;;;4122852;28;20092;-69
2021/09/06 08:31:36;;;;;;;21.63;14.93;;;19.80;99.90;;;;;;4116695;28;20042;-69
2021/09/06 08:33:36;;;;;;;25.42;16.67;;;19.90;99.90;;;;;;4103267;28;20145;-69
2021/09/06 08:35:37;;;;;;;23.95;15.18;;;20.00;99.90;;;;;;4104637;28;20451;-69
2021/09/06 08:37:38;;;;;;;22.85;15.15;;;20.10;99.90;;;;;;4118885;28;20465;-69
2021/09/06 08:39:38;;;;;;;22.50;15.05;;;20.10;99.90;;;;;;4121310;28;20427;-69
2021/09/06 08:41:39;;;;;;;19.48;13.38;;;20.10;99.90;;;;;;4120777;28;20061;-69
2021/09/06 08:43:40;;;;;;;23.05;14.20;;;20.20;99.90;;;;;;4121459;28;20117;-69
2021/09/06 08:45:41;;;;;;;25.52;15.35;;;20.30;99.90;;;;;;4103068;28;20047;-69
2021/09/06 08:47:42;;;;;;;22.60;14.20;;;20.30;99.90;;;;;;4122780;28;20192;-69
2021/09/06 08:49:45;;;;;;;23.27;14.65;;;20.40;99.90;;;;;;4102882;28;20067;-69
2021/09/06 08:51:46;;;;;;;26.52;15.00;;;20.50;99.90;;;;;;4123457;28;20042;-69
2021/09/06 08:53:46;;;;;;;22.35;13.85;;;20.60;99.90;;;;;;4123138;28;20695;-69
2021/09/06 08:55:47;;;;;;;22.73;14.45;;;20.60;99.90;;;;;;4122811;28;20065;-69
2021/09/06 08:57:48;;;;;;;21.55;13.48;;;20.80;99.90;;;;;;4121537;28;20061;-69
2021/09/06 08:59:56;;;;;;;23.13;14.40;;;20.90;99.90;;;;;;4122674;28;20399;-69
2021/09/06 09:01:57;;;;;;;20.88;12.43;;;21.00;99.90;;;;;;4122792;28;20042;-68
2021/09/06 09:04:13;;;;;;;22.90;13.75;;;21.10;99.90;;;;;;4122588;28;20052;-69
2021/09/06 09:06:13;;;;;;;22.27;12.93;;;21.20;99.90;;;;;;4124218;28;20038;-69
2021/09/06 09:08:21;;;;;;;19.65;12.55;;;21.30;99.90;;;;;;4121066;28;20058;-69
2021/09/06 09:10:30;;;;;;;21.42;12.65;;;21.40;99.90;;;;;;4123048;28;20682;-69
2021/09/06 09:12:31;;;;;;;20.15;12.48;;;21.50;99.90;;;;;;4120754;28;20093;-69
2021/09/06 09:14:34;;;;;;;20.30;11.90;;;21.60;99.90;;;;;;4121967;28;20054;-69
2021/09/06 09:16:35;;;;;;;17.08;10.68;;;21.70;99.90;;;;;;4122550;28;20049;-69
2021/09/06 09:18:36;;;;;;;19.88;12.50;;;21.70;99.90;;;;;;4124532;28;20039;-69
2021/09/06 09:20:41;;;;;;;17.48;11.02;;;21.80;99.90;;;;;;4124373;28;20046;-69
2021/09/06 09:22:43;;;;;;;18.05;11.02;;;21.90;99.90;;;;;;4122980;28;20441;-69
2021/09/06 09:25:05;;;;;;;16.88;9.75;;;21.90;99.90;;;;;;4118696;28;20758;-70
2021/09/06 09:27:08;;;;;;;18.10;11.48;;;22.00;99.90;;;;;;4119853;28;20037;-69
2021/09/06 09:29:18;;;;;;;19.33;11.73;;;22.00;99.90;;;;;;4120704;28;20073;-69
2021/09/06 09:31:21;;;;;;;17.30;10.13;;;22.10;99.90;;;;;;4121889;28;20034;-69
2021/09/06 09:33:22;;;;;;;19.08;11.55;;;22.20;99.90;;;;;;4120845;28;20035;-70
2021/09/06 09:35:30;;;;;;;17.80;12.27;;;22.30;99.90;;;;;;4122284;28;20786;-69
2021/09/06 09:37:31;;;;;;;18.30;11.70;;;22.40;99.90;;;;;;4118849;28;20086;-69
2021/09/06 09:39:33;;;;;;;18.65;11.27;;;22.40;99.90;;;;;;4121795;28;20033;-69
2021/09/06 09:41:34;;;;;;;18.45;11.57;;;22.50;99.90;;;;;;4115331;28;20130;-69
2021/09/06 09:43:35;;;;;;;17.33;10.07;;;22.70;99.90;;;;;;4119843;28;20124;-69
2021/09/06 09:45:37;;;;;;;16.52;9.95;;;22.80;99.90;;;;;;4120389;28;20073;-70
2021/09/06 09:47:37;;;;;;;19.35;10.10;;;23.00;99.90;;;;;;4116617;28;20069;-69
2021/09/06 09:49:38;;;;;;;16.40;9.70;;;23.10;99.90;;;;;;4118434;28;20493;-69
2021/09/06 09:51:40;;;;;;;16.38;9.88;;;23.20;99.90;;;;;;4119604;28;20047;-69
2021/09/06 09:53:41;;;;;;;23.27;11.25;;;23.30;99.90;;;;;;4120478;28;20030;-69
2021/09/06 09:55:41;;;;;;;14.95;9.43;;;23.40;99.90;;;;;;4117489;28;20039;-69
2021/09/06 09:57:42;;;;;;;16.80;10.90;;;23.50;99.90;;;;;;4120344;28;20027;-69
2021/09/06 09:59:43;;;;;;;15.18;9.55;;;23.60;99.90;;;;;;4118788;28;20058;-69
2021/09/06 10:02:04;;;;;;;15.43;8.95;;;23.80;99.90;;;;;;4117498;28;20046;-71
2021/09/06 10:04:08;;;;;;;17.33;10.00;;;23.80;99.90;;;;;;4117913;28;20593;-69
2021/09/06 10:06:08;;;;;;;15.70;9.48;;;23.90;99.90;;;;;;4122186;28;20721;-69
2021/09/06 10:08:16;;;;;;;19.25;9.40;;;24.00;99.90;;;;;;4119581;28;20038;-69
2021/09/06 10:10:19;;;;;;;15.07;8.88;;;24.00;99.90;;;;;;4119853;28;20033;-69
2021/09/06 10:12:25;;;;;;;14.00;9.75;;;24.10;99.90;;;;;;4119300;28;20063;-69
2021/09/06 10:14:28;;;;;;;18.27;10.52;;;24.10;99.90;;;;;;4118644;28;20406;-69
2021/09/06 10:16:30;;;;;;;16.35;9.10;;;24.20;99.90;;;;;;4121199;28;20795;-69